Terminal Aerodrome Forecast
Issued by NWS

Home | Current Version | Previous Version | Graphics & Text | Print | Product List | Glossary On
Versions: 1 2 3 4 5 6 7 8 9 10 11 12 13 14 15 16 17 18
000
FTUS43 KGRB 262352
TAFRHI
TAF
KRHI 262352Z 2700/2724 36003KT 2SM -RA BR OVC005
     FM270400 VRB03KT 1SM BR VCSH OVC002
     FM271500 02003KT 3SM -RA BR OVC006
     FM271700 36004KT P6SM OVC008=

USA.gov is the U.S. government's official web portal to all federal, state and local government web resources and services.